Decoded Metar for LQBK (BANJA LUKA in BOSNIA-HERCEGOVINA) (IATA:N/A) | Meteo·Mobile Aviation Weather
aviador You're here:

LQBK Decoded Metar

BANJA LUKA in BOSNIA-HERCEGOVINA
Report Time2018-11-18 20:30:00
UTC Time2018-11-18 20:59:11
Flight Rules lifr LIFR
Wind030° at 03 kt
W.Decomp.*RWY 35: 2.3 kt HW 1.9 kt RCW
W.Rank030° ranks 15
Current wind is below 030° avg. (3.8)
Visibility1500 m
Phenomena:Drizzle
Mist
Clouds:Broken 003 Hf
Ceiling300 ft
Temp01°C (ISA -13)
Dew Point01°C (100% RH)
AAT-1.9°C
QNH1017 hPa
Density Alt-1,253 ft
Elevation400 ft
Report Wrong Elevation
Raw Report
METAR LQBK 182030Z 03003KT 1500 DZ BR BKN003 01/01 Q1017 NOSIG=

Extra information for LQBK:More info

Metar Taf Metar & Taf Last 4 Metars F.Rules Stats Wind Profile Meteogram Temp Stats Airport Information Weather charts Add Link Nearby VenuesMetar ALERT Operation Metar Decoded Social comments